| time (UTC) | temp C | wind direction | speed KPH | gust KPH | rain 1hr cm | rain 24hr cm | rain mn cm | humidity % | barometer mb |
| 20260507185845 | 30 | 159 | 4.8 | 4.8 | 0.00 | 0.00 | 0.00 | 68 | 1015.6 |
| 20260507184844 | 31 | 335 | 9.7 | 11.3 | 0.00 | 0.00 | 0.00 | 65 | 1015.7 |
| 20260507183844 | 30 | 345 | 6.4 | 8.0 | 0.00 | 0.00 | 0.00 | 70 | 1015.8 |
| 20260507182839 | 30 | 324 | 11.3 | 14.5 | 0.00 | 0.00 | 0.00 | 67 | 1016.0 |
| 20260507181837 | 30 | 334 | 4.8 | 8.0 | 0.00 | 0.00 | 0.00 | 70 | 1016.2 |
| 20260507180835 | 30 | 323 | 9.7 | 12.9 | 0.00 | 0.00 | 0.00 | 70 | 1016.4 |
| 20260507175833 | 30 | 331 | 17.7 | 20.9 | 0.00 | 0.00 | 0.00 | 68 | 1016.1 |
| 20260507174828 | 30 | 229 | 8.0 | 11.3 | 0.00 | 0.00 | 0.00 | 71 | 1016.1 |
| 20260507173828 | 30 | 343 | 8.0 | 9.7 | 0.00 | 0.00 | 0.00 | 70 | 1016.6 |
| 20260507172827 | 30 | 318 | 9.7 | 11.3 | 0.00 | 0.00 | 0.00 | 70 | 1016.6 |
| 20260507171826 | 30 | 309 | 12.9 | 16.1 | 0.00 | 0.00 | 0.00 | 69 | 1016.7 |
| 20260507170826 | 30 | 280 | 11.3 | 14.5 | 0.00 | 0.00 | 0.00 | 67 | 1016.9 |
| 20260507165824 | 30 | 321 | 12.9 | 16.1 | 0.00 | 0.00 | 0.00 | 65 | 1016.8 |
| 20260507164822 | 30 | 275 | 6.4 | 9.7 | 0.00 | 0.00 | 0.00 | 67 | 1017.2 |
| 20260507163822 | 30 | 229 | 3.2 | 4.8 | 0.00 | 0.00 | 0.00 | 68 | 1017.2 |
| 20260507162821 | 30 | 323 | 6.4 | 9.7 | 0.00 | 0.00 | 0.00 | 66 | 1017.3 |
| 20260507161820 | 30 | 324 | 6.4 | 8.0 | 0.00 | 0.00 | 0.00 | 64 | 1017.6 |
| 20260507160819 | 31 | 258 | 3.2 | 3.2 | 0.00 | 0.00 | 0.00 | 65 | 1017.4 |
| 20260507155817 | 30 | 300 | 9.7 | 12.9 | 0.00 | 0.00 | 0.00 | 65 | 1017.5 |
| 20260507154815 | 30 | 308 | 3.2 | 4.8 | 0.00 | 0.00 | 0.00 | 66 | 1017.4 |
| 20260507153815 | 30 | 339 | 11.3 | 14.5 | 0.00 | 0.00 | 0.00 | 65 | 1017.7 |
| 20260507152814 | 30 | 319 | 6.4 | 8.0 | 0.00 | 0.00 | 0.00 | 67 | 1017.8 |
| 20260507151812 | 30 | 341 | 6.4 | 8.0 | 0.00 | 0.00 | 0.00 | 65 | 1017.8 |
| 20260507150812 | 30 | 321 | 4.8 | 9.7 | 0.00 | 0.00 | 0.00 | 65 | 1017.9 |
| 20260507145810 | 30 | 323 | 4.8 | 4.8 | 0.00 | 0.00 | 0.00 | 67 | 1017.7 |
| 20260507144810 | 30 | 305 | 11.3 | 14.5 | 0.00 | 0.00 | 0.00 | 63 | 1017.9 |
| 20260507143809 | 31 | 158 | 1.6 | 3.2 | 0.00 | 0.00 | 0.00 | 60 | 1017.7 |
| 20260507142808 | 30 | 279 | 4.8 | 4.8 | 0.00 | 0.00 | 0.00 | 63 | 1017.9 |
| 20260507141808 | 31 | 271 | 6.4 | 9.7 | 0.00 | 0.00 | 0.00 | 59 | 1018.1 |
| 20260507140807 | 31 | 105 | 1.6 | 1.6 | 0.00 | 0.00 | 0.00 | 57 | 1017.7 |
| 20260507135802 | 31 | 56 | 1.6 | 1.6 | 0.00 | 0.00 | 0.00 | 57 | 1017.9 |
| 20260507134801 | 30 | 96 | 3.2 | 3.2 | 0.00 | 0.00 | 0.00 | 59 | 1018.0 |
| 20260507133759 | 31 | 116 | 0.0 | 0.0 | 0.00 | 0.00 | 0.00 | 56 | 1017.7 |
| 20260507132754 | 31 | 13 | 3.2 | 3.2 | 0.00 | 0.00 | 0.00 | 58 | 1018.0 |
| 20260507131753 | 30 | 127 | 1.6 | 1.6 | 0.00 | 0.00 | 0.00 | 60 | 1017.8 |
| 20260507130752 | 30 | 156 | 1.6 | 1.6 | 0.00 | 0.00 | 0.00 | 63 | 1017.6 |
| 20260507125749 | 30 | 99 | 1.6 | 1.6 | 0.00 | 0.00 | 0.00 | 63 | 1017.7 |
| 20260507124748 | 29 | 115 | 0.0 | 0.0 | 0.00 | 0.00 | 0.00 | 64 | 1017.8 |
| 20260507123743 | 29 | 332 | 1.6 | 3.2 | 0.00 | 0.00 | 0.00 | 65 | 1017.7 |
| 20260507122742 | 28 | 104 | 1.6 | 1.6 | 0.00 | 0.00 | 0.00 | 66 | 1017.6 |
| 20260507121739 | 28 | 114 | 0.0 | 1.6 | 0.00 | 0.00 | 0.00 | 67 | 1017.3 |
| 20260507120738 | 27 | 128 | 1.6 | 1.6 | 0.00 | 0.00 | 0.00 | 71 | 1017.1 |
| 20260507115737 | 27 | 134 | 0.0 | 1.6 | 0.00 | 0.00 | 0.00 | 72 | 1017.1 |
| 20260507114734 | 27 | 125 | 0.0 | 0.0 | 0.00 | 0.00 | 0.00 | 72 | 1017.1 |
| 20260507113729 | 27 | 99 | 0.0 | 1.6 | 0.00 | 0.00 | 0.00 | 70 | 1016.8 |
| 20260507112729 | 26 | 130 | 0.0 | 0.0 | 0.00 | 0.00 | 0.00 | 73 | 1016.8 |
| 20260507111724 | 24 | 115 | 0.0 | 1.6 | 0.00 | 0.00 | 0.00 | 82 | 1016.9 |
| 20260507110722 | 23 | 131 | 1.6 | 1.6 | 0.00 | 0.00 | 0.00 | 85 | 1016.8 |
| 20260507105722 | 23 | 151 | 3.2 | 3.2 | 0.00 | 0.00 | 0.00 | 86 | 1016.9 |
| 20260507104721 | 22 | 129 | 0.0 | 1.6 | 0.00 | 0.00 | 0.00 | 87 | 1016.9 |
| 20260507103719 | 22 | 102 | 0.0 | 0.0 | 0.00 | 0.00 | 0.00 | 88 | 1016.9 |
| 20260507102718 | 22 | 121 | 0.0 | 0.0 | 0.00 | 0.00 | 0.00 | 90 | 1016.8 |
| 20260507101717 | 22 | 137 | 0.0 | 0.0 | 0.00 | 0.00 | 0.00 | 90 | 1016.5 |
| 20260507100716 | 22 | 139 | 0.0 | 1.6 | 0.00 | 0.00 | 0.00 | 90 | 1016.4 |
| 20260507095712 | 22 | 120 | 0.0 | 1.6 | 0.00 | 0.00 | 0.00 | 90 | 1016.3 |
| 20260507094711 | 22 | 126 | 0.0 | 0.0 | 0.00 | 0.00 | 0.00 | 90 | 1016.2 |
| 20260507093710 | 22 | 125 | 0.0 | 1.6 | 0.00 | 0.00 | 0.00 | 90 | 1015.9 |
| 20260507092706 | 22 | 117 | 0.0 | 0.0 | 0.00 | 0.00 | 0.00 | 90 | 1016.1 |
| 20260507091705 | 22 | 119 | 1.6 | 1.6 | 0.00 | 0.00 | 0.00 | 90 | 1016.0 |
| 20260507090702 | 22 | 146 | 1.6 | 3.2 | 0.00 | 0.00 | 0.00 | 90 | 1016.1 |
| 20260507085702 | 22 | 132 | 0.0 | 1.6 | 0.00 | 0.00 | 0.00 | 90 | 1016.3 |
| 20260507084702 | 22 | 146 | 1.6 | 1.6 | 0.00 | 0.00 | 0.00 | 89 | 1016.3 |
| 20260507083700 | 22 | 126 | 0.0 | 0.0 | 0.00 | 0.00 | 0.00 | 88 | 1016.4 |
| 20260507082659 | 23 | 141 | 0.0 | 0.0 | 0.00 | 0.00 | 0.00 | 88 | 1016.3 |
| 20260507081658 | 23 | 143 | 0.0 | 0.0 | 0.00 | 0.00 | 0.00 | 87 | 1016.4 |
| 20260507080656 | 23 | 118 | 0.0 | 0.0 | 0.00 | 0.00 | 0.00 | 88 | 1016.2 |
| 20260507075653 | 23 | 148 | 0.0 | 0.0 | 0.00 | 0.00 | 0.00 | 90 | 1016.2 |
| 20260507074652 | 23 | 128 | 0.0 | 0.0 | 0.00 | 0.00 | 0.00 | 91 | 1016.2 |
| 20260507073652 | 23 | 127 | 0.0 | 0.0 | 0.00 | 0.00 | 0.00 | 90 | 1016.1 |
| 20260507072652 | 23 | 128 | 0.0 | 0.0 | 0.00 | 0.00 | 0.00 | 90 | 1016.1 |
| 20260507071647 | 23 | 128 | 0.0 | 0.0 | 0.00 | 0.00 | 0.00 | 90 | 1016.4 |
| 20260507070646 | 23 | 133 | 0.0 | 0.0 | 0.00 | 0.00 | 0.00 | 90 | 1016.6 |
| 20260507065645 | 23 | 120 | 0.0 | 0.0 | 0.00 | 0.00 | 0.00 | 89 | 1016.7 |
| 20260507064640 | 23 | 128 | 0.0 | 1.6 | 0.00 | 0.00 | 0.00 | 89 | 1016.4 |
| 20260507063635 | 23 | 136 | 0.0 | 0.0 | 0.00 | 0.00 | 0.00 | 89 | 1016.6 |
| 20260507062635 | 23 | 142 | 1.6 | 1.6 | 0.00 | 0.00 | 0.00 | 89 | 1016.8 |
| 20260507061630 | 23 | 145 | 1.6 | 1.6 | 0.00 | 0.00 | 0.00 | 89 | 1017.0 |
| 20260507060626 | 23 | 146 | 3.2 | 3.2 | 0.00 | 0.00 | 0.00 | 89 | 1017.0 |
| 20260507055623 | 24 | 130 | 1.6 | 1.6 | 0.00 | 0.00 | 0.00 | 88 | 1017.4 |
| 20260507054621 | 24 | 128 | 0.0 | 0.0 | 0.00 | 0.00 | 0.00 | 88 | 1017.3 |
| 20260507053617 | 24 | 133 | 1.6 | 3.2 | 0.00 | 0.00 | 0.00 | 88 | 1017.5 |
| 20260507052613 | 24 | 143 | 0.0 | 0.0 | 0.00 | 0.00 | 0.00 | 89 | 1017.4 |
| 20260507051612 | 25 | 150 | 3.2 | 3.2 | 0.00 | 0.00 | 0.00 | 88 | 1017.5 |
| 20260507050611 | 25 | 148 | 1.6 | 1.6 | 0.00 | 0.00 | 0.00 | 88 | 1017.7 |
| 20260507045611 | 25 | 137 | 1.6 | 1.6 | 0.00 | 0.00 | 0.00 | 87 | 1017.9 |
| 20260507044610 | 25 | 121 | 1.6 | 3.2 | 0.00 | 0.00 | 0.00 | 87 | 1018.0 |
| 20260507043609 | 25 | 146 | 0.0 | 0.0 | 0.00 | 0.00 | 0.00 | 87 | 1018.2 |
| 20260507042608 | 25 | 140 | 0.0 | 0.0 | 0.00 | 0.00 | 0.00 | 87 | 1018.4 |
| 20260507041606 | 25 | 123 | 0.0 | 1.6 | 0.00 | 0.00 | 0.00 | 86 | 1018.4 |
| 20260507040606 | 25 | 128 | 1.6 | 1.6 | 0.00 | 0.00 | 0.00 | 86 | 1018.5 |
| 20260507035604 | 26 | 133 | 0.0 | 0.0 | 0.00 | 0.00 | 0.00 | 85 | 1018.6 |
| 20260507034603 | 26 | 139 | 0.0 | 0.0 | 0.00 | 0.00 | 0.00 | 85 | 1018.7 |
| 20260507033559 | 26 | 141 | 1.6 | 1.6 | 0.00 | 0.00 | 0.00 | 85 | 1018.8 |
| 20260507032559 | 26 | 135 | 0.0 | 1.6 | 0.00 | 0.00 | 0.00 | 85 | 1018.7 |
| 20260507031558 | 26 | 134 | 0.0 | 1.6 | 0.00 | 0.00 | 0.00 | 85 | 1019.0 |
| 20260507030557 | 26 | 131 | 1.6 | 1.6 | 0.00 | 0.00 | 0.00 | 85 | 1019.0 |
| 20260507025552 | 26 | 119 | 0.0 | 1.6 | 0.00 | 0.00 | 0.00 | 84 | 1018.9 |
| 20260507024552 | 26 | 136 | 0.0 | 0.0 | 0.00 | 0.00 | 0.00 | 84 | 1018.9 |
| 20260507023550 | 26 | 127 | 0.0 | 0.0 | 0.00 | 0.00 | 0.00 | 84 | 1018.8 |
| 20260507022545 | 26 | 136 | 0.0 | 0.0 | 0.00 | 0.00 | 0.00 | 83 | 1019.0 |
| 20260507021542 | 26 | 136 | 1.6 | 1.6 | 0.00 | 0.00 | 0.00 | 83 | 1018.8 |
| 20260507020537 | 26 | 126 | 0.0 | 1.6 | 0.00 | 0.00 | 0.00 | 83 | 1018.7 |
| 20260507015538 | 26 | 137 | 1.6 | 1.6 | 0.00 | 0.00 | 0.00 | 83 | 1018.8 |
| 20260507014537 | 27 | 125 | 0.0 | 1.6 | 0.00 | 0.00 | 0.00 | 82 | 1018.3 |
| 20260507013535 | 27 | 139 | 1.6 | 1.6 | 0.00 | 0.00 | 0.00 | 81 | 1018.5 |
| 20260507012530 | 27 | 136 | 1.6 | 1.6 | 0.00 | 0.00 | 0.00 | 81 | 1018.5 |
| 20260507011530 | 27 | 136 | 1.6 | 1.6 | 0.00 | 0.00 | 0.00 | 81 | 1018.2 |
| 20260507010526 | 27 | 138 | 1.6 | 1.6 | 0.00 | 0.00 | 0.00 | 81 | 1018.2 |
| 20260507005526 | 27 | 120 | 1.6 | 3.2 | 0.00 | 0.00 | 0.00 | 80 | 1017.9 |
| 20260507004525 | 27 | 132 | 1.6 | 1.6 | 0.00 | 0.00 | 0.00 | 78 | 1018.0 |
| 20260507003524 | 27 | 93 | 1.6 | 1.6 | 0.00 | 0.00 | 0.00 | 77 | 1018.0 |
| 20260507002522 | 28 | 86 | 1.6 | 1.6 | 0.00 | 0.00 | 0.00 | 76 | 1018.1 |
| 20260507001520 | 28 | 130 | 0.0 | 0.0 | 0.00 | 0.00 | 0.00 | 75 | 1018.0 |
| 20260507000520 | 28 | 319 | 1.6 | 1.6 | 0.00 | 0.00 | 0.00 | 74 | 1017.7 |
| 20260506235519 | 28 | 168 | 1.6 | 1.6 | 0.00 | 0.00 | 0.00 | 73 | 1017.8 |
| 20260506234519 | 28 | 293 | 1.6 | 1.6 | 0.00 | 0.00 | 0.00 | 73 | 1017.5 |
| 20260506233518 | 28 | 116 | 0.0 | 0.0 | 0.00 | 0.00 | 0.00 | 74 | 1017.4 |
| 20260506232517 | 28 | 300 | 3.2 | 3.2 | 0.00 | 0.00 | 0.00 | 74 | 1017.4 |
| 20260506231516 | 28 | 326 | 4.8 | 4.8 | 0.00 | 0.00 | 0.00 | 74 | 1017.3 |
| 20260506230515 | 28 | 156 | 1.6 | 1.6 | 0.00 | 0.00 | 0.00 | 75 | 1017.3 |
| 20260506225510 | 28 | 154 | 1.6 | 1.6 | 0.00 | 0.00 | 0.00 | 74 | 1017.0 |
| 20260506224509 | 28 | 216 | 1.6 | 3.2 | 0.00 | 0.00 | 0.00 | 74 | 1016.9 |
| 20260506223507 | 28 | 108 | 3.2 | 4.8 | 0.00 | 0.00 | 0.00 | 73 | 1016.8 |
| 20260506222506 | 28 | 141 | 0.0 | 0.0 | 0.00 | 0.00 | 0.00 | 73 | 1016.9 |
| 20260506221505 | 29 | 238 | 1.6 | 3.2 | 0.00 | 0.00 | 0.00 | 73 | 1016.5 |
| 20260506220503 | 28 | 321 | 1.6 | 3.2 | 0.00 | 0.00 | 0.00 | 73 | 1016.6 |
| 20260506215502 | 28 | 273 | 4.8 | 4.8 | 0.00 | 0.00 | 0.00 | 73 | 1016.3 |
| 20260506214500 | 28 | 92 | 4.8 | 4.8 | 0.00 | 0.00 | 0.00 | 72 | 1016.3 |
| 20260506213455 | 28 | 221 | 4.8 | 8.0 | 0.00 | 0.00 | 0.00 | 72 | 1016.5 |
| 20260506212453 | 29 | 320 | 4.8 | 4.8 | 0.00 | 0.00 | 0.00 | 71 | 1016.3 |
| 20260506211450 | 28 | 102 | 4.8 | 8.0 | 0.00 | 0.00 | 0.00 | 72 | 1016.1 |
| 20260506210450 | 28 | 253 | 3.2 | 3.2 | 0.00 | 0.00 | 0.00 | 71 | 1016.0 |
| 20260506205449 | 29 | 217 | 4.8 | 4.8 | 0.00 | 0.00 | 0.00 | 71 | 1016.0 |
| 20260506204449 | 29 | 291 | 4.8 | 4.8 | 0.00 | 0.00 | 0.00 | 69 | 1015.9 |
| 20260506203449 | 29 | 304 | 8.0 | 11.3 | 0.00 | 0.00 | 0.00 | 67 | 1016.2 |
| 20260506202444 | 30 | 292 | 3.2 | 4.8 | 0.00 | 0.00 | 0.00 | 66 | 1015.9 |
| 20260506201443 | 30 | 285 | 4.8 | 4.8 | 0.00 | 0.00 | 0.00 | 65 | 1016.1 |
| 20260506200442 | 30 | 323 | 8.0 | 11.3 | 0.00 | 0.00 | 0.00 | 63 | 1016.2 |
| 20260506195441 | 31 | 261 | 4.8 | 8.0 | 0.00 | 0.00 | 0.00 | 61 | 1016.2 |
| 20260506194436 | 30 | 338 | 6.4 | 9.7 | 0.00 | 0.00 | 0.00 | 62 | 1016.1 |
| 20260506193435 | 31 | 332 | 4.8 | 4.8 | 0.00 | 0.00 | 0.00 | 62 | 1016.1 |
| 20260506192435 | 30 | 206 | 1.6 | 1.6 | 0.00 | 0.00 | 0.00 | 65 | 1016.2 |
| 20260506191434 | 31 | 356 | 4.8 | 8.0 | 0.00 | 0.00 | 0.00 | 62 | 1016.0 |
| 20260506190433 | 30 | 347 | 6.4 | 8.0 | 0.00 | 0.00 | 0.00 | 63 | 1016.6 |